sensor_id;sensor_type;location;lat;lon;timestamp;P1;durP1;ratioP1;P2;durP2;ratioP2
44704;SDS011;30431;48.520;9.046;2022-09-17T00:01:45;5.70;;;1.83;;
44704;SDS011;30431;48.520;9.046;2022-09-17T00:04:12;2.83;;;2.10;;
44704;SDS011;30431;48.520;9.046;2022-09-17T00:06:41;3.10;;;1.77;;
44704;SDS011;30431;48.520;9.046;2022-09-17T00:09:10;2.72;;;1.70;;
44704;SDS011;30431;48.520;9.046;2022-09-17T00:11:38;4.38;;;1.50;;
44704;SDS011;30431;48.520;9.046;2022-09-17T00:14:13;2.78;;;1.63;;
44704;SDS011;30431;48.520;9.046;2022-09-17T00:16:45;2.00;;;1.50;;
44704;SDS011;30431;48.520;9.046;2022-09-17T00:19:20;3.53;;;1.40;;
44704;SDS011;30431;48.520;9.046;2022-09-17T00:21:48;3.78;;;1.58;;
44704;SDS011;30431;48.520;9.046;2022-09-17T00:24:18;6.55;;;1.65;;
44704;SDS011;30431;48.520;9.046;2022-09-17T00:26:48;2.28;;;1.52;;
44704;SDS011;30431;48.520;9.046;2022-09-17T00:29:16;3.13;;;1.70;;
44704;SDS011;30431;48.520;9.046;2022-09-17T00:31:42;5.90;;;1.55;;
44704;SDS011;30431;48.520;9.046;2022-09-17T00:34:09;2.50;;;1.50;;
44704;SDS011;30431;48.520;9.046;2022-09-17T00:36:37;2.42;;;1.52;;
44704;SDS011;30431;48.520;9.046;2022-09-17T00:39:06;1.55;;;1.40;;
44704;SDS011;30431;48.520;9.046;2022-09-17T00:41:35;3.53;;;1.40;;
44704;SDS011;30431;48.520;9.046;2022-09-17T00:47:14;1.38;;;1.27;;
44704;SDS011;30431;48.520;9.046;2022-09-17T00:49:46;3.47;;;1.40;;
44704;SDS011;30431;48.520;9.046;2022-09-17T00:52:17;2.28;;;1.45;;
44704;SDS011;30431;48.520;9.046;2022-09-17T00:54:53;2.22;;;1.63;;
44704;SDS011;30431;48.520;9.046;2022-09-17T00:57:25;7.45;;;1.80;;
44704;SDS011;30431;48.520;9.046;2022-09-17T00:59:55;3.42;;;1.73;;
44704;SDS011;30431;48.520;9.046;2022-09-17T01:02:22;1.48;;;1.33;;
44704;SDS011;30431;48.520;9.046;2022-09-17T01:04:51;3.35;;;1.60;;
44704;SDS011;30431;48.520;9.046;2022-09-17T01:34:19;3.13;;;1.70;;
44704;SDS011;30431;48.520;9.046;2022-09-17T01:37:01;3.15;;;1.50;;
44704;SDS011;30431;48.520;9.046;2022-09-17T01:39:50;3.25;;;1.48;;
44704;SDS011;30431;48.520;9.046;2022-09-17T01:42:27;2.95;;;1.30;;
44704;SDS011;30431;48.520;9.046;2022-09-17T01:53:55;3.47;;;1.70;;
44704;SDS011;30431;48.520;9.046;2022-09-17T01:56:27;1.35;;;1.20;;
44704;SDS011;30431;48.520;9.046;2022-09-17T01:59:04;1.73;;;1.45;;
44704;SDS011;30431;48.520;9.046;2022-09-17T02:01:36;2.42;;;1.35;;
44704;SDS011;30431;48.520;9.046;2022-09-17T02:04:12;2.47;;;1.60;;
44704;SDS011;30431;48.520;9.046;2022-09-17T02:06:49;2.90;;;1.40;;
44704;SDS011;30431;48.520;9.046;2022-09-17T02:09:38;2.22;;;1.60;;
44704;SDS011;30431;48.520;9.046;2022-09-17T02:12:12;3.37;;;1.63;;
44704;SDS011;30431;48.520;9.046;2022-09-17T02:14:51;2.42;;;1.52;;
44704;SDS011;30431;48.520;9.046;2022-09-17T02:19:54;2.13;;;1.60;;
44704;SDS011;30431;48.520;9.046;2022-09-17T02:25:35;2.72;;;1.63;;
44704;SDS011;30431;48.520;9.046;2022-09-17T02:30:42;2.13;;;1.60;;
44704;SDS011;30431;48.520;9.046;2022-09-17T02:33:12;3.13;;;1.60;;
44704;SDS011;30431;48.520;9.046;2022-09-17T02:35:43;2.08;;;1.70;;
44704;SDS011;30431;48.520;9.046;2022-09-17T02:38:12;2.80;;;1.60;;
44704;SDS011;30431;48.520;9.046;2022-09-17T02:40:49;2.72;;;1.80;;
44704;SDS011;30431;48.520;9.046;2022-09-17T02:54:27;3.47;;;1.90;;
44704;SDS011;30431;48.520;9.046;2022-09-17T02:57:06;6.28;;;2.10;;
44704;SDS011;30431;48.520;9.046;2022-09-17T03:00:03;4.68;;;2.22;;
44704;SDS011;30431;48.520;9.046;2022-09-17T03:02:32;4.40;;;1.88;;
44704;SDS011;30431;48.520;9.046;2022-09-17T03:05:06;3.95;;;1.90;;
44704;SDS011;30431;48.520;9.046;2022-09-17T03:07:37;2.85;;;1.70;;
44704;SDS011;30431;48.520;9.046;2022-09-17T03:12:31;4.10;;;1.70;;
44704;SDS011;30431;48.520;9.046;2022-09-17T03:19:53;3.05;;;1.90;;
44704;SDS011;30431;48.520;9.046;2022-09-17T03:22:20;3.00;;;2.00;;
44704;SDS011;30431;48.520;9.046;2022-09-17T03:24:46;5.07;;;2.00;;
44704;SDS011;30431;48.520;9.046;2022-09-17T03:27:13;4.63;;;2.05;;
44704;SDS011;30431;48.520;9.046;2022-09-17T03:29:41;5.13;;;1.85;;
44704;SDS011;30431;48.520;9.046;2022-09-17T03:32:10;4.47;;;1.95;;
44704;SDS011;30431;48.520;9.046;2022-09-17T03:34:37;2.97;;;1.95;;
44704;SDS011;30431;48.520;9.046;2022-09-17T03:37:04;7.50;;;2.20;;
44704;SDS011;30431;48.520;9.046;2022-09-17T03:39:31;8.10;;;2.25;;
44704;SDS011;30431;48.520;9.046;2022-09-17T03:41:58;5.45;;;2.20;;
44704;SDS011;30431;48.520;9.046;2022-09-17T03:44:25;5.35;;;2.42;;
44704;SDS011;30431;48.520;9.046;2022-09-17T03:46:54;7.15;;;2.90;;
44704;SDS011;30431;48.520;9.046;2022-09-17T03:51:54;5.45;;;2.90;;
44704;SDS011;30431;48.520;9.046;2022-09-17T03:54:25;4.97;;;3.13;;
44704;SDS011;30431;48.520;9.046;2022-09-17T03:56:52;7.85;;;3.08;;
44704;SDS011;30431;48.520;9.046;2022-09-17T03:59:19;9.20;;;5.18;;
44704;SDS011;30431;48.520;9.046;2022-09-17T04:01:46;7.68;;;4.68;;
44704;SDS011;30431;48.520;9.046;2022-09-17T04:04:13;6.28;;;3.60;;
44704;SDS011;30431;48.520;9.046;2022-09-17T04:06:40;6.82;;;3.95;;
44704;SDS011;30431;48.520;9.046;2022-09-17T04:09:07;11.30;;;4.38;;
44704;SDS011;30431;48.520;9.046;2022-09-17T04:11:34;9.10;;;3.72;;
44704;SDS011;30431;48.520;9.046;2022-09-17T04:14:01;5.78;;;3.08;;
44704;SDS011;30431;48.520;9.046;2022-09-17T04:16:28;6.65;;;2.63;;
44704;SDS011;30431;48.520;9.046;2022-09-17T04:18:55;5.40;;;2.60;;
44704;SDS011;30431;48.520;9.046;2022-09-17T04:21:22;20.30;;;7.18;;
44704;SDS011;30431;48.520;9.046;2022-09-17T04:23:51;14.98;;;5.95;;
44704;SDS011;30431;48.520;9.046;2022-09-17T04:26:21;14.25;;;4.70;;
44704;SDS011;30431;48.520;9.046;2022-09-17T04:28:50;22.00;;;7.78;;
44704;SDS011;30431;48.520;9.046;2022-09-17T04:31:17;14.18;;;6.40;;
44704;SDS011;30431;48.520;9.046;2022-09-17T04:33:44;12.55;;;6.07;;
44704;SDS011;30431;48.520;9.046;2022-09-17T04:36:11;10.90;;;4.30;;
44704;SDS011;30431;48.520;9.046;2022-09-17T04:38:38;7.90;;;3.80;;
44704;SDS011;30431;48.520;9.046;2022-09-17T04:41:07;8.30;;;4.18;;
44704;SDS011;30431;48.520;9.046;2022-09-17T04:43:34;11.10;;;4.13;;
44704;SDS011;30431;48.520;9.046;2022-09-17T04:46:01;9.98;;;4.20;;
44704;SDS011;30431;48.520;9.046;2022-09-17T04:48:30;8.65;;;3.70;;
44704;SDS011;30431;48.520;9.046;2022-09-17T04:50:57;7.43;;;2.60;;
44704;SDS011;30431;48.520;9.046;2022-09-17T04:53:24;3.65;;;2.20;;
44704;SDS011;30431;48.520;9.046;2022-09-17T04:55:51;3.30;;;1.90;;
44704;SDS011;30431;48.520;9.046;2022-09-17T04:58:18;7.82;;;3.42;;
44704;SDS011;30431;48.520;9.046;2022-09-17T05:00:47;6.25;;;3.00;;
44704;SDS011;30431;48.520;9.046;2022-09-17T05:03:15;5.70;;;2.40;;
44704;SDS011;30431;48.520;9.046;2022-09-17T05:05:42;5.00;;;2.35;;
44704;SDS011;30431;48.520;9.046;2022-09-17T05:08:16;4.80;;;2.30;;
44704;SDS011;30431;48.520;9.046;2022-09-17T05:10:43;16.27;;;7.93;;
44704;SDS011;30431;48.520;9.046;2022-09-17T05:13:12;23.50;;;9.85;;
44704;SDS011;30431;48.520;9.046;2022-09-17T05:20:33;18.10;;;8.93;;
44704;SDS011;30431;48.520;9.046;2022-09-17T05:23:00;15.65;;;7.22;;
44704;SDS011;30431;48.520;9.046;2022-09-17T05:25:30;9.05;;;4.60;;
44704;SDS011;30431;48.520;9.046;2022-09-17T05:30:29;8.40;;;3.20;;
44704;SDS011;30431;48.520;9.046;2022-09-17T05:33:05;6.03;;;3.20;;
44704;SDS011;30431;48.520;9.046;2022-09-17T05:35:33;14.07;;;5.47;;
44704;SDS011;30431;48.520;9.046;2022-09-17T05:38:03;10.18;;;3.90;;
44704;SDS011;30431;48.520;9.046;2022-09-17T05:40:33;7.78;;;3.22;;
44704;SDS011;30431;48.520;9.046;2022-09-17T05:43:05;11.55;;;3.45;;
44704;SDS011;30431;48.520;9.046;2022-09-17T05:45:39;9.50;;;3.45;;
44704;SDS011;30431;48.520;9.046;2022-09-17T05:48:10;3.70;;;2.00;;
44704;SDS011;30431;48.520;9.046;2022-09-17T05:50:43;5.38;;;2.33;;
44704;SDS011;30431;48.520;9.046;2022-09-17T05:53:12;5.45;;;2.20;;
44704;SDS011;30431;48.520;9.046;2022-09-17T05:55:39;5.30;;;2.95;;
44704;SDS011;30431;48.520;9.046;2022-09-17T05:58:13;4.95;;;2.20;;
44704;SDS011;30431;48.520;9.046;2022-09-17T06:00:42;6.22;;;2.05;;
44704;SDS011;30431;48.520;9.046;2022-09-17T06:03:14;5.28;;;2.20;;
44704;SDS011;30431;48.520;9.046;2022-09-17T06:05:42;5.35;;;2.13;;
44704;SDS011;30431;48.520;9.046;2022-09-17T06:08:22;4.70;;;2.13;;
44704;SDS011;30431;48.520;9.046;2022-09-17T06:10:50;4.22;;;2.25;;
44704;SDS011;30431;48.520;9.046;2022-09-17T06:13:17;6.43;;;2.28;;
44704;SDS011;30431;48.520;9.046;2022-09-17T06:15:49;5.18;;;2.55;;
44704;SDS011;30431;48.520;9.046;2022-09-17T06:18:18;4.22;;;2.17;;
44704;SDS011;30431;48.520;9.046;2022-09-17T06:20:55;5.18;;;2.20;;
44704;SDS011;30431;48.520;9.046;2022-09-17T06:23:27;10.25;;;5.60;;
44704;SDS011;30431;48.520;9.046;2022-09-17T06:26:03;4.57;;;2.53;;
44704;SDS011;30431;48.520;9.046;2022-09-17T06:28:31;7.55;;;2.33;;
44704;SDS011;30431;48.520;9.046;2022-09-17T06:31:01;5.50;;;2.45;;
44704;SDS011;30431;48.520;9.046;2022-09-17T06:33:31;4.50;;;2.22;;
44704;SDS011;30431;48.520;9.046;2022-09-17T06:36:03;5.60;;;2.03;;
44704;SDS011;30431;48.520;9.046;2022-09-17T06:38:39;3.50;;;1.92;;
44704;SDS011;30431;48.520;9.046;2022-09-17T06:46:01;4.53;;;2.33;;
44704;SDS011;30431;48.520;9.046;2022-09-17T06:48:34;5.70;;;2.00;;
44704;SDS011;30431;48.520;9.046;2022-09-17T06:51:05;6.50;;;2.05;;
44704;SDS011;30431;48.520;9.046;2022-09-17T06:53:36;6.13;;;2.10;;
44704;SDS011;30431;48.520;9.046;2022-09-17T06:56:07;7.07;;;2.20;;
44704;SDS011;30431;48.520;9.046;2022-09-17T06:58:35;3.40;;;1.85;;
44704;SDS011;30431;48.520;9.046;2022-09-17T07:01:03;6.10;;;2.05;;
44704;SDS011;30431;48.520;9.046;2022-09-17T07:03:33;6.45;;;1.90;;
44704;SDS011;30431;48.520;9.046;2022-09-17T07:06:04;10.00;;;2.00;;
44704;SDS011;30431;48.520;9.046;2022-09-17T07:11:08;5.97;;;2.15;;
44704;SDS011;30431;48.520;9.046;2022-09-17T07:13:35;5.10;;;2.63;;
44704;SDS011;30431;48.520;9.046;2022-09-17T07:16:04;6.78;;;2.30;;
44704;SDS011;30431;48.520;9.046;2022-09-17T07:18:34;4.47;;;1.90;;
44704;SDS011;30431;48.520;9.046;2022-09-17T07:21:04;10.70;;;2.55;;
44704;SDS011;30431;48.520;9.046;2022-09-17T07:23:35;3.78;;;1.63;;
44704;SDS011;30431;48.520;9.046;2022-09-17T07:26:04;6.18;;;2.13;;
44704;SDS011;30431;48.520;9.046;2022-09-17T07:28:39;4.65;;;1.75;;
44704;SDS011;30431;48.520;9.046;2022-09-17T07:31:06;8.70;;;2.00;;
44704;SDS011;30431;48.520;9.046;2022-09-17T07:33:41;5.75;;;1.98;;
44704;SDS011;30431;48.520;9.046;2022-09-17T07:36:13;6.90;;;1.98;;
44704;SDS011;30431;48.520;9.046;2022-09-17T07:38:43;7.72;;;1.95;;
44704;SDS011;30431;48.520;9.046;2022-09-17T07:41:12;8.10;;;2.10;;
44704;SDS011;30431;48.520;9.046;2022-09-17T07:43:45;7.82;;;2.20;;
44704;SDS011;30431;48.520;9.046;2022-09-17T07:46:15;3.88;;;2.00;;
44704;SDS011;30431;48.520;9.046;2022-09-17T07:48:44;7.05;;;2.03;;
44704;SDS011;30431;48.520;9.046;2022-09-17T07:51:13;6.45;;;1.90;;
44704;SDS011;30431;48.520;9.046;2022-09-17T07:53:42;8.57;;;2.40;;
44704;SDS011;30431;48.520;9.046;2022-09-17T07:56:12;5.00;;;2.03;;
44704;SDS011;30431;48.520;9.046;2022-09-17T07:58:44;5.35;;;2.08;;
44704;SDS011;30431;48.520;9.046;2022-09-17T08:01:12;6.43;;;2.40;;
44704;SDS011;30431;48.520;9.046;2022-09-17T08:03:50;7.97;;;2.10;;
44704;SDS011;30431;48.520;9.046;2022-09-17T08:06:22;8.82;;;2.97;;
44704;SDS011;30431;48.520;9.046;2022-09-17T08:08:57;6.72;;;2.35;;
44704;SDS011;30431;48.520;9.046;2022-09-17T08:11:30;4.55;;;2.05;;
44704;SDS011;30431;48.520;9.046;2022-09-17T08:14:17;5.03;;;2.33;;
44704;SDS011;30431;48.520;9.046;2022-09-17T08:16:53;7.97;;;2.57;;
44704;SDS011;30431;48.520;9.046;2022-09-17T08:19:20;8.55;;;3.03;;
44704;SDS011;30431;48.520;9.046;2022-09-17T08:21:49;4.68;;;2.20;;
44704;SDS011;30431;48.520;9.046;2022-09-17T08:24:17;8.30;;;3.45;;
44704;SDS011;30431;48.520;9.046;2022-09-17T08:26:44;5.20;;;2.95;;
44704;SDS011;30431;48.520;9.046;2022-09-17T08:29:11;10.07;;;3.75;;
44704;SDS011;30431;48.520;9.046;2022-09-17T08:31:38;5.50;;;2.63;;
44704;SDS011;30431;48.520;9.046;2022-09-17T08:34:08;8.77;;;3.38;;
44704;SDS011;30431;48.520;9.046;2022-09-17T08:36:35;5.38;;;2.35;;
44704;SDS011;30431;48.520;9.046;2022-09-17T08:39:04;6.57;;;2.47;;
44704;SDS011;30431;48.520;9.046;2022-09-17T08:44:43;4.90;;;2.38;;
44704;SDS011;30431;48.520;9.046;2022-09-17T08:49:59;7.80;;;2.05;;
44704;SDS011;30431;48.520;9.046;2022-09-17T09:00:44;3.72;;;1.50;;
44704;SDS011;30431;48.520;9.046;2022-09-17T09:05:54;5.40;;;2.28;;
44704;SDS011;30431;48.520;9.046;2022-09-17T09:08:29;5.43;;;2.05;;
44704;SDS011;30431;48.520;9.046;2022-09-17T09:11:02;5.43;;;2.45;;
44704;SDS011;30431;48.520;9.046;2022-09-17T09:13:35;5.75;;;2.72;;
44704;SDS011;30431;48.520;9.046;2022-09-17T09:16:23;7.57;;;2.58;;
44704;SDS011;30431;48.520;9.046;2022-09-17T09:18:54;3.95;;;1.90;;
44704;SDS011;30431;48.520;9.046;2022-09-17T09:24:15;4.97;;;2.00;;
44704;SDS011;30431;48.520;9.046;2022-09-17T09:35:14;5.95;;;1.90;;
44704;SDS011;30431;48.520;9.046;2022-09-17T09:37:51;7.57;;;2.10;;
44704;SDS011;30431;48.520;9.046;2022-09-17T09:40:36;7.70;;;2.45;;
44704;SDS011;30431;48.520;9.046;2022-09-17T09:46:34;7.47;;;2.13;;
44704;SDS011;30431;48.520;9.046;2022-09-17T09:57:42;18.38;;;8.25;;
44704;SDS011;30431;48.520;9.046;2022-09-17T10:00:27;19.70;;;3.40;;
44704;SDS011;30431;48.520;9.046;2022-09-17T10:05:39;10.25;;;3.00;;
44704;SDS011;30431;48.520;9.046;2022-09-17T10:08:17;13.77;;;2.90;;
44704;SDS011;30431;48.520;9.046;2022-09-17T10:13:33;6.32;;;2.67;;
44704;SDS011;30431;48.520;9.046;2022-09-17T10:18:46;8.52;;;2.50;;
44704;SDS011;30431;48.520;9.046;2022-09-17T10:21:21;8.20;;;2.63;;
44704;SDS011;30431;48.520;9.046;2022-09-17T10:23:59;9.70;;;2.40;;
44704;SDS011;30431;48.520;9.046;2022-09-17T10:26:31;7.28;;;2.42;;
44704;SDS011;30431;48.520;9.046;2022-09-17T10:29:04;12.02;;;3.30;;
44704;SDS011;30431;48.520;9.046;2022-09-17T10:34:20;7.00;;;2.45;;
44704;SDS011;30431;48.520;9.046;2022-09-17T10:36:51;7.47;;;2.05;;
44704;SDS011;30431;48.520;9.046;2022-09-17T10:41:56;5.43;;;2.40;;
44704;SDS011;30431;48.520;9.046;2022-09-17T10:47:30;10.07;;;2.45;;
44704;SDS011;30431;48.520;9.046;2022-09-17T10:52:46;7.43;;;2.30;;
44704;SDS011;30431;48.520;9.046;2022-09-17T11:00:20;6.65;;;1.83;;
44704;SDS011;30431;48.520;9.046;2022-09-17T11:08:09;5.45;;;1.83;;
44704;SDS011;30431;48.520;9.046;2022-09-17T11:17:02;9.35;;;2.20;;
44704;SDS011;30431;48.520;9.046;2022-09-17T11:34:21;5.78;;;2.40;;
44704;SDS011;30431;48.520;9.046;2022-09-17T11:40:34;5.45;;;2.20;;
44704;SDS011;30431;48.520;9.046;2022-09-17T11:43:06;9.43;;;2.60;;
44704;SDS011;30431;48.520;9.046;2022-09-17T11:45:58;6.47;;;1.90;;
44704;SDS011;30431;48.520;9.046;2022-09-17T11:48:31;6.60;;;2.40;;
44704;SDS011;30431;48.520;9.046;2022-09-17T11:54:07;7.43;;;2.13;;
44704;SDS011;30431;48.520;9.046;2022-09-17T11:56:48;3.92;;;1.98;;
44704;SDS011;30431;48.520;9.046;2022-09-17T11:59:24;7.90;;;2.33;;
44704;SDS011;30431;48.520;9.046;2022-09-17T12:02:21;5.35;;;1.75;;
44704;SDS011;30431;48.520;9.046;2022-09-17T12:13:15;7.70;;;2.38;;
44704;SDS011;30431;48.520;9.046;2022-09-17T12:16:07;5.68;;;1.88;;
44704;SDS011;30431;48.520;9.046;2022-09-17T12:19:03;8.85;;;1.95;;
44704;SDS011;30431;48.520;9.046;2022-09-17T12:33:03;4.35;;;2.15;;
44704;SDS011;30431;48.520;9.046;2022-09-17T12:59:47;4.00;;;1.63;;
44704;SDS011;30431;48.520;9.046;2022-09-17T13:22:22;4.05;;;1.70;;
44704;SDS011;30431;48.520;9.046;2022-09-17T13:27:37;5.65;;;2.40;;
44704;SDS011;30431;48.520;9.046;2022-09-17T13:30:11;5.68;;;2.50;;
44704;SDS011;30431;48.520;9.046;2022-09-17T13:32:41;5.13;;;2.28;;
44704;SDS011;30431;48.520;9.046;2022-09-17T13:40:19;9.38;;;2.38;;
44704;SDS011;30431;48.520;9.046;2022-09-17T13:42:56;5.68;;;2.92;;
44704;SDS011;30431;48.520;9.046;2022-09-17T13:48:27;5.68;;;2.17;;
44704;SDS011;30431;48.520;9.046;2022-09-17T13:50:57;4.97;;;2.10;;
44704;SDS011;30431;48.520;9.046;2022-09-17T13:54:02;4.70;;;1.85;;
44704;SDS011;30431;48.520;9.046;2022-09-17T13:56:47;3.10;;;1.85;;
44704;SDS011;30431;48.520;9.046;2022-09-17T13:59:23;4.53;;;2.20;;
44704;SDS011;30431;48.520;9.046;2022-09-17T14:08:12;6.45;;;3.65;;
44704;SDS011;30431;48.520;9.046;2022-09-17T14:10:57;5.35;;;2.20;;
44704;SDS011;30431;48.520;9.046;2022-09-17T14:16:01;4.53;;;2.63;;
44704;SDS011;30431;48.520;9.046;2022-09-17T14:19:01;3.90;;;1.83;;
44704;SDS011;30431;48.520;9.046;2022-09-17T14:21:42;2.78;;;1.65;;
44704;SDS011;30431;48.520;9.046;2022-09-17T14:24:19;4.05;;;1.42;;
44704;SDS011;30431;48.520;9.046;2022-09-17T14:26:59;3.67;;;1.63;;
44704;SDS011;30431;48.520;9.046;2022-09-17T14:32:12;5.85;;;1.88;;
44704;SDS011;30431;48.520;9.046;2022-09-17T14:34:47;1.90;;;1.30;;
44704;SDS011;30431;48.520;9.046;2022-09-17T14:37:16;3.92;;;1.50;;
44704;SDS011;30431;48.520;9.046;2022-09-17T14:39:46;2.65;;;1.55;;
44704;SDS011;30431;48.520;9.046;2022-09-17T14:42:16;1.83;;;1.38;;
44704;SDS011;30431;48.520;9.046;2022-09-17T14:44:53;4.50;;;1.52;;
44704;SDS011;30431;48.520;9.046;2022-09-17T14:47:27;2.30;;;1.20;;
44704;SDS011;30431;48.520;9.046;2022-09-17T14:50:08;2.38;;;1.40;;
44704;SDS011;30431;48.520;9.046;2022-09-17T14:52:49;2.22;;;1.40;;
44704;SDS011;30431;48.520;9.046;2022-09-17T14:57:51;3.05;;;1.60;;
44704;SDS011;30431;48.520;9.046;2022-09-17T15:00:24;3.75;;;1.40;;
44704;SDS011;30431;48.520;9.046;2022-09-17T15:03:03;2.42;;;1.55;;
44704;SDS011;30431;48.520;9.046;2022-09-17T15:05:32;2.38;;;1.35;;
44704;SDS011;30431;48.520;9.046;2022-09-17T15:10:52;7.28;;;4.10;;
44704;SDS011;30431;48.520;9.046;2022-09-17T15:13:40;3.88;;;2.13;;
44704;SDS011;30431;48.520;9.046;2022-09-17T15:16:17;4.43;;;2.22;;
44704;SDS011;30431;48.520;9.046;2022-09-17T15:21:46;2.95;;;1.52;;
44704;SDS011;30431;48.520;9.046;2022-09-17T15:26:51;7.30;;;1.73;;
44704;SDS011;30431;48.520;9.046;2022-09-17T15:29:21;3.95;;;2.13;;
44704;SDS011;30431;48.520;9.046;2022-09-17T15:31:54;4.80;;;1.80;;
44704;SDS011;30431;48.520;9.046;2022-09-17T15:34:22;4.22;;;1.95;;
44704;SDS011;30431;48.520;9.046;2022-09-17T15:37:05;4.50;;;1.85;;
44704;SDS011;30431;48.520;9.046;2022-09-17T15:39:46;4.68;;;1.60;;
44704;SDS011;30431;48.520;9.046;2022-09-17T15:45:06;5.13;;;2.00;;
44704;SDS011;30431;48.520;9.046;2022-09-17T15:47:55;8.48;;;2.85;;
44704;SDS011;30431;48.520;9.046;2022-09-17T15:52:57;4.60;;;2.30;;
44704;SDS011;30431;48.520;9.046;2022-09-17T16:08:49;9.05;;;2.40;;
44704;SDS011;30431;48.520;9.046;2022-09-17T16:11:27;5.03;;;2.55;;
44704;SDS011;30431;48.520;9.046;2022-09-17T16:13:59;5.75;;;2.28;;
44704;SDS011;30431;48.520;9.046;2022-09-17T16:16:30;3.58;;;1.77;;
44704;SDS011;30431;48.520;9.046;2022-09-17T16:18:59;6.63;;;2.03;;
44704;SDS011;30431;48.520;9.046;2022-09-17T16:21:27;5.88;;;2.40;;
44704;SDS011;30431;48.520;9.046;2022-09-17T16:23:57;4.78;;;1.88;;
44704;SDS011;30431;48.520;9.046;2022-09-17T16:26:28;4.20;;;1.70;;
44704;SDS011;30431;48.520;9.046;2022-09-17T16:29:01;6.57;;;2.20;;
44704;SDS011;30431;48.520;9.046;2022-09-17T16:31:41;4.78;;;1.85;;
44704;SDS011;30431;48.520;9.046;2022-09-17T16:34:13;4.60;;;1.77;;
44704;SDS011;30431;48.520;9.046;2022-09-17T16:39:10;4.22;;;1.73;;
44704;SDS011;30431;48.520;9.046;2022-09-17T16:41:37;3.30;;;1.70;;
44704;SDS011;30431;48.520;9.046;2022-09-17T16:44:04;2.65;;;1.40;;
44704;SDS011;30431;48.520;9.046;2022-09-17T16:46:31;2.92;;;1.80;;
44704;SDS011;30431;48.520;9.046;2022-09-17T16:48:58;3.00;;;1.58;;
44704;SDS011;30431;48.520;9.046;2022-09-17T16:51:26;1.67;;;1.58;;
44704;SDS011;30431;48.520;9.046;2022-09-17T16:53:53;3.78;;;1.80;;
44704;SDS011;30431;48.520;9.046;2022-09-17T16:56:31;1.40;;;1.30;;
44704;SDS011;30431;48.520;9.046;2022-09-17T16:59:03;3.15;;;1.55;;
44704;SDS011;30431;48.520;9.046;2022-09-17T17:01:33;4.93;;;1.60;;
44704;SDS011;30431;48.520;9.046;2022-09-17T17:11:24;4.35;;;1.80;;
44704;SDS011;30431;48.520;9.046;2022-09-17T17:13:53;2.95;;;1.63;;
44704;SDS011;30431;48.520;9.046;2022-09-17T17:16:26;3.90;;;1.70;;
44704;SDS011;30431;48.520;9.046;2022-09-17T17:18:58;3.83;;;1.73;;
44704;SDS011;30431;48.520;9.046;2022-09-17T17:23:52;5.15;;;2.47;;
44704;SDS011;30431;48.520;9.046;2022-09-17T17:26:20;4.32;;;2.60;;
44704;SDS011;30431;48.520;9.046;2022-09-17T17:28:47;7.35;;;3.92;;
44704;SDS011;30431;48.520;9.046;2022-09-17T17:33:41;3.70;;;1.90;;
44704;SDS011;30431;48.520;9.046;2022-09-17T17:36:11;4.15;;;1.90;;
44704;SDS011;30431;48.520;9.046;2022-09-17T17:38:39;4.05;;;2.13;;
44704;SDS011;30431;48.520;9.046;2022-09-17T17:41:10;4.63;;;1.80;;
44704;SDS011;30431;48.520;9.046;2022-09-17T17:43:39;3.03;;;1.60;;
44704;SDS011;30431;48.520;9.046;2022-09-17T17:46:08;3.72;;;2.10;;
44704;SDS011;30431;48.520;9.046;2022-09-17T17:48:37;4.72;;;2.00;;
44704;SDS011;30431;48.520;9.046;2022-09-17T17:51:05;3.60;;;1.95;;
44704;SDS011;30431;48.520;9.046;2022-09-17T17:53:34;4.18;;;1.98;;
44704;SDS011;30431;48.520;9.046;2022-09-17T17:56:06;4.25;;;2.35;;
44704;SDS011;30431;48.520;9.046;2022-09-17T17:58:34;4.68;;;2.10;;
44704;SDS011;30431;48.520;9.046;2022-09-17T18:01:09;3.67;;;1.88;;
44704;SDS011;30431;48.520;9.046;2022-09-17T18:03:40;5.35;;;1.75;;
44704;SDS011;30431;48.520;9.046;2022-09-17T18:06:08;4.32;;;2.10;;
44704;SDS011;30431;48.520;9.046;2022-09-17T18:08:38;4.68;;;1.98;;
44704;SDS011;30431;48.520;9.046;2022-09-17T18:11:07;4.68;;;2.03;;
44704;SDS011;30431;48.520;9.046;2022-09-17T18:13:38;5.03;;;2.00;;
44704;SDS011;30431;48.520;9.046;2022-09-17T18:16:06;6.55;;;2.33;;
44704;SDS011;30431;48.520;9.046;2022-09-17T18:18:39;5.93;;;2.42;;
44704;SDS011;30431;48.520;9.046;2022-09-17T18:21:14;8.00;;;2.65;;
44704;SDS011;30431;48.520;9.046;2022-09-17T18:23:48;3.97;;;2.20;;
44704;SDS011;30431;48.520;9.046;2022-09-17T18:26:22;6.75;;;2.97;;
44704;SDS011;30431;48.520;9.046;2022-09-17T18:28:56;6.13;;;2.58;;
44704;SDS011;30431;48.520;9.046;2022-09-17T18:31:24;3.92;;;1.95;;
44704;SDS011;30431;48.520;9.046;2022-09-17T18:33:59;3.92;;;2.03;;
44704;SDS011;30431;48.520;9.046;2022-09-17T18:36:29;3.38;;;1.70;;
44704;SDS011;30431;48.520;9.046;2022-09-17T18:39:01;6.95;;;1.80;;
44704;SDS011;30431;48.520;9.046;2022-09-17T18:41:50;4.20;;;2.08;;
44704;SDS011;30431;48.520;9.046;2022-09-17T18:44:20;3.67;;;2.17;;
44704;SDS011;30431;48.520;9.046;2022-09-17T18:46:47;4.40;;;1.70;;
44704;SDS011;30431;48.520;9.046;2022-09-17T18:49:16;4.72;;;2.00;;
44704;SDS011;30431;48.520;9.046;2022-09-17T18:51:46;3.83;;;1.80;;
44704;SDS011;30431;48.520;9.046;2022-09-17T18:54:13;3.15;;;1.73;;
44704;SDS011;30431;48.520;9.046;2022-09-17T18:56:40;4.38;;;2.38;;
44704;SDS011;30431;48.520;9.046;2022-09-17T18:59:08;3.53;;;1.70;;
44704;SDS011;30431;48.520;9.046;2022-09-17T19:01:38;4.97;;;1.52;;
44704;SDS011;30431;48.520;9.046;2022-09-17T19:04:06;5.32;;;1.70;;
44704;SDS011;30431;48.520;9.046;2022-09-17T19:06:33;4.22;;;1.95;;
44704;SDS011;30431;48.520;9.046;2022-09-17T19:09:02;3.75;;;2.03;;
44704;SDS011;30431;48.520;9.046;2022-09-17T19:11:33;3.08;;;1.70;;
44704;SDS011;30431;48.520;9.046;2022-09-17T19:14:02;6.55;;;1.63;;
44704;SDS011;30431;48.520;9.046;2022-09-17T19:16:29;2.40;;;1.48;;
44704;SDS011;30431;48.520;9.046;2022-09-17T19:18:56;4.63;;;1.70;;
44704;SDS011;30431;48.520;9.046;2022-09-17T19:26:20;4.10;;;1.92;;
44704;SDS011;30431;48.520;9.046;2022-09-17T19:28:52;4.32;;;1.80;;
44704;SDS011;30431;48.520;9.046;2022-09-17T19:31:21;2.70;;;1.60;;
44704;SDS011;30431;48.520;9.046;2022-09-17T19:33:53;2.08;;;1.40;;
44704;SDS011;30431;48.520;9.046;2022-09-17T19:36:21;2.88;;;1.60;;
44704;SDS011;30431;48.520;9.046;2022-09-17T19:38:49;5.10;;;1.55;;
44704;SDS011;30431;48.520;9.046;2022-09-17T19:41:17;4.55;;;1.60;;
44704;SDS011;30431;48.520;9.046;2022-09-17T19:43:48;1.98;;;1.45;;
44704;SDS011;30431;48.520;9.046;2022-09-17T19:50:09;39.83;;;2.90;;
44704;SDS011;30431;48.520;9.046;2022-09-17T19:52:36;7.20;;;2.08;;
44704;SDS011;30431;48.520;9.046;2022-09-17T19:57:37;4.38;;;1.83;;
44704;SDS011;30431;48.520;9.046;2022-09-17T20:00:05;11.45;;;3.60;;
44704;SDS011;30431;48.520;9.046;2022-09-17T20:02:37;10.55;;;2.30;;
44704;SDS011;30431;48.520;9.046;2022-09-17T20:05:04;6.15;;;1.77;;
44704;SDS011;30431;48.520;9.046;2022-09-17T20:07:34;8.00;;;2.30;;
44704;SDS011;30431;48.520;9.046;2022-09-17T20:12:34;7.85;;;2.47;;
44704;SDS011;30431;48.520;9.046;2022-09-17T20:17:30;9.07;;;2.63;;
44704;SDS011;30431;48.520;9.046;2022-09-17T20:19:58;7.85;;;2.50;;
44704;SDS011;30431;48.520;9.046;2022-09-17T20:22:26;8.43;;;2.45;;
44704;SDS011;30431;48.520;9.046;2022-09-17T20:24:56;5.78;;;2.30;;
44704;SDS011;30431;48.520;9.046;2022-09-17T20:27:26;3.45;;;1.58;;
44704;SDS011;30431;48.520;9.046;2022-09-17T20:29:59;4.15;;;1.90;;
44704;SDS011;30431;48.520;9.046;2022-09-17T20:32:31;4.45;;;1.95;;
44704;SDS011;30431;48.520;9.046;2022-09-17T20:35:01;4.05;;;1.77;;
44704;SDS011;30431;48.520;9.046;2022-09-17T20:40:16;4.50;;;1.60;;
44704;SDS011;30431;48.520;9.046;2022-09-17T20:42:46;4.88;;;1.70;;